Time;durP1;ratioP1;P1;durP2;ratioP2;P2;SDS_P1;SDS_P2;PMS_P1;PMS_P2;Temp;Humidity;BMP_temperature;BMP_pressure;BME280_temperature;BME280_humidity;BME280_pressure;Samples;Min_cycle;Max_cycle;Signal;HPM_P1;HPM_P2
2023/03/12 00:00:37;;;;;;;;;21.75;20.25;;;;;-147.17;100.00;-15917.19;5102605;27;51271;-47
2023/03/12 00:03:03;;;;;;;;;14.75;14.75;;;;;-147.17;100.00;-15917.19;5103733;27;51242;-48
2023/03/12 00:05:30;;;;;;;;;20.25;19.50;;;;;-147.17;100.00;-15917.19;5109581;27;51113;-47
2023/03/12 00:07:58;;;;;;;;;21.75;20.75;;;;;-147.17;100.00;-15917.19;5073316;27;51223;-47
2023/03/12 00:10:28;;;;;;;;;22.25;21.00;;;;;-147.17;100.00;-15917.19;5098389;27;51439;-46
2023/03/12 00:12:57;;;;;;;;;20.75;20.25;;;;;-147.17;100.00;-15917.19;5101143;27;51722;-48
2023/03/12 00:15:23;;;;;;;;;14.00;12.25;;;;;-147.17;100.00;-15917.19;5093529;27;53436;-51
2023/03/12 00:17:50;;;;;;;;;14.25;13.00;;;;;-147.17;100.00;-15917.19;5109311;27;51127;-46
2023/03/12 00:20:17;;;;;;;;;14.50;14.00;;;;;-147.17;100.00;-15917.19;5103876;27;51808;-48
2023/03/12 00:22:43;;;;;;;;;17.50;15.50;;;;;-147.17;100.00;-15917.19;5106150;27;52109;-48
2023/03/12 00:25:12;;;;;;;;;14.25;13.50;;;;;-147.17;100.00;-15917.19;5098704;27;51229;-47
2023/03/12 00:27:37;;;;;;;;;10.75;10.00;;;;;-147.17;100.00;-15917.19;5078931;27;51084;-51
2023/03/12 00:30:04;;;;;;;;;17.25;15.25;;;;;-147.17;100.00;-15917.19;5108032;27;51119;-49
2023/03/12 00:32:32;;;;;;;;;9.50;9.50;;;;;-147.17;100.00;-15917.19;5085046;27;52130;-50
2023/03/12 00:34:58;;;;;;;;;11.00;10.25;;;;;-147.17;100.00;-15917.19;5105732;27;51255;-50
2023/03/12 00:37:23;;;;;;;;;14.50;13.25;;;;;-147.17;100.00;-15917.19;5102731;27;51241;-49
2023/03/12 00:39:48;;;;;;;;;13.25;12.50;;;;;-147.17;100.00;-15917.19;5112522;27;51319;-49
2023/03/12 00:42:14;;;;;;;;;16.50;15.50;;;;;-147.17;100.00;-15917.19;5106654;27;51377;-49
2023/03/12 00:44:39;;;;;;;;;14.75;14.00;;;;;-147.17;100.00;-15917.19;5089783;27;51237;-49
2023/03/12 00:47:05;;;;;;;;;14.25;14.25;;;;;-147.17;100.00;-15917.19;5109592;27;52675;-50
2023/03/12 00:49:31;;;;;;;;;26.75;18.25;;;;;-147.17;100.00;-15917.19;5114014;27;51268;-49
2023/03/12 00:51:56;;;;;;;;;14.75;14.25;;;;;-147.17;100.00;-15917.19;5111622;27;51724;-48
2023/03/12 00:54:22;;;;;;;;;19.00;16.25;;;;;-147.17;100.00;-15917.19;5113988;27;50969;-48
2023/03/12 00:56:48;;;;;;;;;15.00;14.50;;;;;-147.17;100.00;-15917.19;5104384;27;51142;-48
2023/03/12 00:59:14;;;;;;;;;13.50;13.00;;;;;-147.17;100.00;-15917.19;5112859;27;51273;-49
2023/03/12 01:01:40;;;;;;;;;44.50;38.00;;;;;-147.17;100.00;-15917.19;5114680;27;51906;-49
2023/03/12 01:04:05;;;;;;;;;17.00;15.50;;;;;-147.17;100.00;-15917.19;5113129;27;50992;-47
2023/03/12 01:06:30;;;;;;;;;16.50;15.50;;;;;-147.17;100.00;-15917.19;5111604;27;51660;-48
2023/03/12 01:08:56;;;;;;;;;11.25;10.25;;;;;-147.17;100.00;-15917.19;5113582;27;51195;-49
2023/03/12 01:11:22;;;;;;;;;20.50;18.00;;;;;-147.17;100.00;-15917.19;5114193;27;51637;-54
2023/03/12 01:13:48;;;;;;;;;16.25;12.25;;;;;-147.17;100.00;-15917.19;5106169;27;51143;-48
2023/03/12 01:16:13;;;;;;;;;16.00;15.50;;;;;-147.17;100.00;-15917.19;5110925;27;51275;-48
2023/03/12 01:18:38;;;;;;;;;19.00;17.25;;;;;-147.17;100.00;-15917.19;5112465;27;51194;-48
2023/03/12 01:21:04;;;;;;;;;13.25;13.00;;;;;-147.17;100.00;-15917.19;5115000;27;51056;-49
2023/03/12 01:23:29;;;;;;;;;37.75;34.25;;;;;-147.17;100.00;-15917.19;5112694;27;51127;-48
2023/03/12 01:25:55;;;;;;;;;16.25;16.00;;;;;-147.17;100.00;-15917.19;5110548;27;51212;-47
2023/03/12 01:28:22;;;;;;;;;7.50;6.50;;;;;-147.17;100.00;-15917.19;5108659;27;51285;-47
2023/03/12 01:30:47;;;;;;;;;14.00;11.75;;;;;-147.17;100.00;-15917.19;5106679;27;53329;-50
2023/03/12 01:33:14;;;;;;;;;18.25;14.25;;;;;-147.17;100.00;-15917.19;5114847;27;51331;-49
2023/03/12 01:35:40;;;;;;;;;5.25;5.00;;;;;-147.17;100.00;-15917.19;5111813;27;51214;-49
2023/03/12 01:38:06;;;;;;;;;6.75;6.00;;;;;-147.17;100.00;-15917.19;5111227;27;51173;-49
2023/03/12 01:40:33;;;;;;;;;9.00;8.50;;;;;-147.17;100.00;-15917.19;5110336;27;52509;-48
2023/03/12 01:43:23;;;;;;;;;15.00;13.25;;;;;-147.17;100.00;-15917.19;5112757;27;51184;-48
2023/03/12 01:46:17;;;;;;;;;22.50;20.75;;;;;-147.17;100.00;-15917.19;5103908;27;51094;-47
2023/03/12 01:48:47;;;;;;;;;11.75;10.00;;;;;-147.17;100.00;-15917.19;5111803;27;50987;-47
2023/03/12 01:51:14;;;;;;;;;10.25;8.75;;;;;-147.17;100.00;-15917.19;5112989;27;51993;-49
2023/03/12 01:53:44;;;;;;;;;16.00;15.00;;;;;-147.17;100.00;-15917.19;5113376;27;51086;-53
2023/03/12 01:56:09;;;;;;;;;15.25;13.75;;;;;-147.17;100.00;-15917.19;5112317;27;51157;-48
2023/03/12 01:58:39;;;;;;;;;11.75;11.25;;;;;-147.17;100.00;-15917.19;5105623;27;51529;-49
2023/03/12 02:01:05;;;;;;;;;11.00;10.00;;;;;-147.17;100.00;-15917.19;5103395;27;52562;-49
2023/03/12 02:03:33;;;;;;;;;12.50;9.25;;;;;-147.17;100.00;-15917.19;5111957;27;51188;-49
2023/03/12 02:06:05;;;;;;;;;12.75;11.25;;;;;-147.17;100.00;-15917.19;5112308;27;51096;-47
2023/03/12 02:08:35;;;;;;;;;9.25;7.75;;;;;-147.17;100.00;-15917.19;5094378;27;51056;-48
2023/03/12 02:11:01;;;;;;;;;8.50;8.00;;;;;-147.17;100.00;-15917.19;5111384;27;51989;-48
2023/03/12 02:13:26;;;;;;;;;9.75;9.25;;;;;-147.17;100.00;-15917.19;5095296;27;51192;-49
2023/03/12 02:15:52;;;;;;;;;11.00;11.00;;;;;-147.17;100.00;-15917.19;5111602;27;51131;-48
2023/03/12 02:18:20;;;;;;;;;9.00;8.25;;;;;-147.17;100.00;-15917.19;5108031;27;51350;-50
2023/03/12 02:21:08;;;;;;;;;8.25;7.25;;;;;-147.17;100.00;-15917.19;5111910;27;52608;-48
2023/03/12 02:23:44;;;;;;;;;20.50;19.00;;;;;-147.17;100.00;-15917.19;5114478;27;50884;-48
2023/03/12 02:26:11;;;;;;;;;16.50;15.25;;;;;-147.17;100.00;-15917.19;5113815;27;51329;-47
2023/03/12 02:28:42;;;;;;;;;8.50;5.75;;;;;-147.17;100.00;-15917.19;5105966;27;51296;-49
2023/03/12 02:31:11;;;;;;;;;8.50;8.25;;;;;-147.17;100.00;-15917.19;5111327;27;52855;-49
2023/03/12 02:33:37;;;;;;;;;8.50;6.75;;;;;-147.17;100.00;-15917.19;5111289;27;51153;-48
2023/03/12 02:36:02;;;;;;;;;8.75;7.00;;;;;-147.17;100.00;-15917.19;5113044;27;51245;-48
2023/03/12 02:38:41;;;;;;;;;13.75;10.00;;;;;-147.17;100.00;-15917.19;5111938;27;51142;-48
2023/03/12 02:41:12;;;;;;;;;8.25;7.00;;;;;-147.17;100.00;-15917.19;5104437;27;52685;-49
2023/03/12 02:43:39;;;;;;;;;5.75;4.50;;;;;-147.17;100.00;-15917.19;5109730;27;51195;-48
2023/03/12 02:46:06;;;;;;;;;8.50;6.25;;;;;-147.17;100.00;-15917.19;5110728;27;51224;-47
2023/03/12 02:48:31;;;;;;;;;6.25;6.25;;;;;-147.17;100.00;-15917.19;5107741;27;51650;-49
2023/03/12 02:50:56;;;;;;;;;11.25;9.00;;;;;-147.17;100.00;-15917.19;5113272;27;51744;-48
2023/03/12 02:53:22;;;;;;;;;12.00;8.00;;;;;-147.17;100.00;-15917.19;5112658;27;51132;-49
2023/03/12 02:55:47;;;;;;;;;8.75;6.25;;;;;-147.17;100.00;-15917.19;5092463;27;51336;-53
2023/03/12 02:58:12;;;;;;;;;10.75;9.75;;;;;-147.17;100.00;-15917.19;5110884;27;51497;-48
2023/03/12 03:00:38;;;;;;;;;8.75;7.50;;;;;-147.17;100.00;-15917.19;5111135;27;51796;-50
2023/03/12 03:03:03;;;;;;;;;11.25;5.25;;;;;-147.17;100.00;-15917.19;5111642;27;51003;-48
2023/03/12 03:05:28;;;;;;;;;8.50;8.50;;;;;-147.17;100.00;-15917.19;5103700;27;51087;-47
2023/03/12 03:07:54;;;;;;;;;6.75;5.00;;;;;-147.17;100.00;-15917.19;5111687;27;51220;-49
2023/03/12 03:10:19;;;;;;;;;10.25;7.75;;;;;-147.17;100.00;-15917.19;5111832;27;51988;-48
2023/03/12 03:12:45;;;;;;;;;6.75;5.25;;;;;-147.17;100.00;-15917.19;5111422;27;51115;-48
2023/03/12 03:15:11;;;;;;;;;8.75;5.50;;;;;-147.17;100.00;-15917.19;5112959;27;51137;-47
2023/03/12 03:17:36;;;;;;;;;9.25;6.75;;;;;-147.17;100.00;-15917.19;5110703;27;51355;-49
2023/03/12 03:20:06;;;;;;;;;7.00;5.00;;;;;-147.17;100.00;-15917.19;5108703;27;51117;-48
2023/03/12 03:22:31;;;;;;;;;8.25;5.00;;;;;-147.17;100.00;-15917.19;5105069;27;51013;-49
2023/03/12 03:24:58;;;;;;;;;6.75;4.00;;;;;-147.17;100.00;-15917.19;5092386;27;51388;-49
2023/03/12 03:27:23;;;;;;;;;5.50;5.00;;;;;-147.17;100.00;-15917.19;5107913;27;53089;-51
2023/03/12 03:29:49;;;;;;;;;10.25;6.25;;;;;-147.17;100.00;-15917.19;5112359;27;51603;-48
2023/03/12 03:32:14;;;;;;;;;3.75;3.00;;;;;-147.17;100.00;-15917.19;5108801;27;51108;-48
2023/03/12 03:34:39;;;;;;;;;6.00;4.67;;;;;-147.17;100.00;-15917.19;5113145;27;51077;-49
2023/03/12 03:37:05;;;;;;;;;6.25;5.75;;;;;-147.17;100.00;-15917.19;5111761;27;51275;-50
2023/03/12 03:39:30;;;;;;;;;6.25;5.50;;;;;-147.17;100.00;-15917.19;5092785;27;52889;-50
2023/03/12 03:41:56;;;;;;;;;9.00;5.00;;;;;-147.17;100.00;-15917.19;5112916;27;51071;-49
2023/03/12 03:44:21;;;;;;;;;10.00;8.75;;;;;-147.17;100.00;-15917.19;5113197;27;50991;-49
2023/03/12 03:46:47;;;;;;;;;11.75;8.25;;;;;-147.17;100.00;-15917.19;5109105;27;51569;-49
2023/03/12 03:49:14;;;;;;;;;5.00;5.00;;;;;-147.17;100.00;-15917.19;5113473;27;51860;-49
2023/03/12 03:51:41;;;;;;;;;8.25;4.50;;;;;-147.17;100.00;-15917.19;5113343;27;51238;-50
2023/03/12 03:54:07;;;;;;;;;2.75;2.75;;;;;-147.17;100.00;-15917.19;5104121;27;51396;-49
2023/03/12 03:56:32;;;;;;;;;8.00;5.75;;;;;-147.17;100.00;-15917.19;5111398;27;50951;-50
2023/03/12 03:58:58;;;;;;;;;9.50;5.50;;;;;-147.17;100.00;-15917.19;5091332;27;53296;-47
2023/03/12 04:01:23;;;;;;;;;6.67;5.00;;;;;-147.17;100.00;-15917.19;5112776;27;50936;-49
2023/03/12 04:03:48;;;;;;;;;6.25;5.00;;;;;-147.17;100.00;-15917.19;5112142;27;51210;-48
2023/03/12 04:06:14;;;;;;;;;5.00;4.00;;;;;-147.17;100.00;-15917.19;5103496;27;50896;-49
2023/03/12 04:08:39;;;;;;;;;9.25;6.25;;;;;-147.17;100.00;-15917.19;5108028;27;51881;-49
2023/03/12 04:11:10;;;;;;;;;6.75;4.50;;;;;-147.17;100.00;-15917.19;5117160;27;51018;-51
2023/03/12 04:13:36;;;;;;;;;8.00;4.00;;;;;-147.17;100.00;-15917.19;5116184;27;51238;-50
2023/03/12 04:16:02;;;;;;;;;4.75;4.00;;;;;-147.17;100.00;-15917.19;5087747;27;51744;-50
2023/03/12 04:18:27;;;;;;;;;7.50;5.00;;;;;-147.17;100.00;-15917.19;5115004;27;51019;-51
2023/03/12 04:20:53;;;;;;;;;6.25;5.75;;;;;-147.17;100.00;-15917.19;5115102;27;51101;-49
2023/03/12 04:23:18;;;;;;;;;7.75;4.75;;;;;-147.17;100.00;-15917.19;5103432;27;51072;-50
2023/03/12 04:25:44;;;;;;;;;6.00;4.33;;;;;-147.17;100.00;-15917.19;5096779;27;51775;-47
2023/03/12 04:28:09;;;;;;;;;4.00;3.00;;;;;-147.17;100.00;-15917.19;5114883;27;51489;-50
2023/03/12 04:30:37;;;;;;;;;4.25;3.00;;;;;-147.17;100.00;-15917.19;5115991;27;50921;-49
2023/03/12 04:33:03;;;;;;;;;5.50;4.50;;;;;-147.17;100.00;-15917.19;5108500;27;51181;-49
2023/03/12 04:35:28;;;;;;;;;3.33;3.00;;;;;-147.17;100.00;-15917.19;5081807;27;52055;-48
2023/03/12 04:37:54;;;;;;;;;4.50;2.75;;;;;-147.17;100.00;-15917.19;5096995;27;51756;-49
2023/03/12 04:40:19;;;;;;;;;4.67;3.00;;;;;-147.17;100.00;-15917.19;5103379;27;51180;-47
2023/03/12 04:42:45;;;;;;;;;6.75;5.00;;;;;-147.17;100.00;-15917.19;5084844;27;51158;-49
2023/03/12 04:45:11;;;;;;;;;11.00;4.75;;;;;-147.17;100.00;-15917.19;5115629;27;51029;-50
2023/03/12 04:47:36;;;;;;;;;4.00;3.25;;;;;-147.17;100.00;-15917.19;5114861;27;53057;-50
2023/03/12 04:50:02;;;;;;;;;6.25;1.75;;;;;-147.17;100.00;-15917.19;5111972;27;50924;-50
2023/03/12 04:52:27;;;;;;;;;4.00;3.00;;;;;-147.17;100.00;-15917.19;5098133;27;51182;-47
2023/03/12 04:54:53;;;;;;;;;4.00;3.00;;;;;-147.17;100.00;-15917.19;5113366;27;51335;-51
2023/03/12 04:57:19;;;;;;;;;5.25;3.25;;;;;-147.17;100.00;-15917.19;5106771;27;51094;-49
2023/03/12 04:59:45;;;;;;;;;5.00;3.00;;;;;-147.17;100.00;-15917.19;5089408;27;51147;-49
2023/03/12 05:02:11;;;;;;;;;4.50;3.00;;;;;-147.17;100.00;-15917.19;5115917;27;51276;-48
2023/03/12 05:04:36;;;;;;;;;8.25;4.25;;;;;-147.17;100.00;-15917.19;5115989;27;51152;-50
2023/03/12 05:07:02;;;;;;;;;3.50;3.00;;;;;-147.17;100.00;-15917.19;5103264;27;51130;-49
2023/03/12 05:09:27;;;;;;;;;5.75;4.00;;;;;-147.17;100.00;-15917.19;5087787;27;51155;-50
2023/03/12 05:11:53;;;;;;;;;5.25;3.50;;;;;-147.17;100.00;-15917.19;5114714;27;51163;-49
2023/03/12 05:14:18;;;;;;;;;4.00;3.00;;;;;-147.17;100.00;-15917.19;5112226;27;51073;-49
2023/03/12 05:16:44;;;;;;;;;7.75;4.00;;;;;-147.17;100.00;-15917.19;5096535;27;51105;-50
2023/03/12 05:19:09;;;;;;;;;6.50;4.00;;;;;-147.17;100.00;-15917.19;5113961;27;51179;-48
2023/03/12 05:21:34;;;;;;;;;4.33;4.00;;;;;-147.17;100.00;-15917.19;5112994;27;51119;-49
2023/03/12 05:24:00;;;;;;;;;4.33;4.00;;;;;-147.17;100.00;-15917.19;5114136;27;51318;-49
2023/03/12 05:26:31;;;;;;;;;5.00;3.00;;;;;-147.17;100.00;-15917.19;5112936;27;51859;-47
2023/03/12 05:28:57;;;;;;;;;17.75;16.75;;;;;-147.17;100.00;-15917.19;5113074;27;51156;-49
2023/03/12 05:31:23;;;;;;;;;5.25;4.25;;;;;-147.17;100.00;-15917.19;5113642;27;51352;-50
2023/03/12 05:33:49;;;;;;;;;7.00;3.00;;;;;-147.17;100.00;-15917.19;5110038;27;51361;-48
2023/03/12 05:36:15;;;;;;;;;7.25;4.00;;;;;-147.17;100.00;-15917.19;5074145;27;53606;-50
2023/03/12 05:38:41;;;;;;;;;3.00;3.00;;;;;-147.17;100.00;-15917.19;5110956;27;51138;-49
2023/03/12 05:41:16;;;;;;;;;5.00;4.50;;;;;-147.17;100.00;-15917.19;5115422;27;50931;-48
2023/03/12 05:43:41;;;;;;;;;5.00;4.00;;;;;-147.17;100.00;-15917.19;5113273;27;51192;-49
2023/03/12 05:46:08;;;;;;;;;5.00;3.00;;;;;-147.17;100.00;-15917.19;5101925;27;52497;-46
2023/03/12 05:48:33;;;;;;;;;7.75;3.75;;;;;-147.17;100.00;-15917.19;5113539;27;51212;-47
2023/03/12 05:50:59;;;;;;;;;5.50;4.00;;;;;-147.17;100.00;-15917.19;5108475;27;51138;-49
2023/03/12 05:53:24;;;;;;;;;7.25;3.50;;;;;-147.17;100.00;-15917.19;5111427;27;51125;-49
2023/03/12 05:55:50;;;;;;;;;4.00;3.00;;;;;-147.17;100.00;-15917.19;5113483;27;51057;-47
2023/03/12 05:58:15;;;;;;;;;4.00;3.00;;;;;-147.17;100.00;-15917.19;5121734;27;50961;-50
2023/03/12 06:00:43;;;;;;;;;8.00;5.00;;;;;-147.17;100.00;-15917.19;5114443;27;51227;-49
2023/03/12 06:03:09;;;;;;;;;4.00;3.25;;;;;-147.17;100.00;-15917.19;5101315;27;51418;-53
2023/03/12 06:05:35;;;;;;;;;4.00;2.75;;;;;-147.17;100.00;-15917.19;5091940;27;53013;-50
2023/03/12 06:08:02;;;;;;;;;2.75;2.75;;;;;-147.17;100.00;-15917.19;5108665;27;51034;-48
2023/03/12 06:10:27;;;;;;;;;5.75;5.50;;;;;-147.17;100.00;-15917.19;5114378;27;51184;-48
2023/03/12 06:12:53;;;;;;;;;5.50;3.75;;;;;-147.17;100.00;-15917.19;5114099;27;51332;-48
2023/03/12 06:15:18;;;;;;;;;4.00;2.50;;;;;-147.17;100.00;-15917.19;5106399;27;52246;-49
2023/03/12 06:17:43;;;;;;;;;6.25;5.00;;;;;-147.17;100.00;-15917.19;5111648;27;51267;-48
2023/03/12 06:20:09;;;;;;;;;3.00;2.50;;;;;-147.17;100.00;-15917.19;5107676;27;51159;-48
2023/03/12 06:22:35;;;;;;;;;6.75;3.25;;;;;-147.17;100.00;-15917.19;5111625;27;50949;-48
2023/03/12 06:25:00;;;;;;;;;5.25;3.00;;;;;-147.17;100.00;-15917.19;5113403;27;51810;-49
2023/03/12 06:27:26;;;;;;;;;5.00;4.00;;;;;-147.17;100.00;-15917.19;5111839;27;51196;-49
2023/03/12 06:29:51;;;;;;;;;5.00;3.00;;;;;-147.17;100.00;-15917.19;5114253;27;51036;-49
2023/03/12 06:32:17;;;;;;;;;3.75;3.00;;;;;-147.17;100.00;-15917.19;5114606;27;51387;-48
2023/03/12 06:34:43;;;;;;;;;4.25;2.75;;;;;-147.17;100.00;-15917.19;5111431;27;52601;-48
2023/03/12 06:37:08;;;;;;;;;5.25;2.50;;;;;-147.17;100.00;-15917.19;5114044;27;51306;-48
2023/03/12 06:39:34;;;;;;;;;6.25;4.00;;;;;-147.17;100.00;-15917.19;5112063;27;51050;-50
2023/03/12 06:41:59;;;;;;;;;6.25;4.50;;;;;-147.17;100.00;-15917.19;5100989;27;51354;-48
2023/03/12 06:44:25;;;;;;;;;4.50;4.00;;;;;-147.17;100.00;-15917.19;5093454;27;52198;-48
2023/03/12 06:46:51;;;;;;;;;7.75;4.50;;;;;-147.17;100.00;-15917.19;5097128;27;51292;-49
2023/03/12 06:49:16;;;;;;;;;3.25;3.00;;;;;-147.17;100.00;-15917.19;5107315;27;51263;-48
2023/03/12 06:51:42;;;;;;;;;1.25;0.00;;;;;-147.17;100.00;-15917.19;5113273;27;51218;-48
2023/03/12 06:54:07;;;;;;;;;4.33;3.67;;;;;-147.17;100.00;-15917.19;5108365;27;52345;-50
2023/03/12 06:56:32;;;;;;;;;8.00;4.00;;;;;-147.17;100.00;-15917.19;5113823;27;51010;-50
2023/03/12 06:58:58;;;;;;;;;3.50;3.00;;;;;-147.17;100.00;-15917.19;5108477;27;51154;-49
2023/03/12 07:01:24;;;;;;;;;4.00;2.75;;;;;-147.17;100.00;-15917.19;5102790;27;51225;-50
2023/03/12 07:03:49;;;;;;;;;4.33;4.33;;;;;-147.17;100.00;-15917.19;5091655;27;51877;-49
2023/03/12 07:06:17;;;;;;;;;7.33;4.67;;;;;-147.17;100.00;-15917.19;5109071;27;51012;-48
2023/03/12 07:08:42;;;;;;;;;6.50;4.00;;;;;-147.17;100.00;-15917.19;5105614;27;51339;-49
2023/03/12 07:11:08;;;;;;;;;8.75;6.00;;;;;-147.17;100.00;-15917.19;5111593;27;51726;-48
2023/03/12 07:13:34;;;;;;;;;5.50;3.00;;;;;-147.17;100.00;-15917.19;5107606;27;51218;-49
2023/03/12 07:16:00;;;;;;;;;5.00;3.67;;;;;-147.17;100.00;-15917.19;5096811;27;51093;-49
2023/03/12 07:18:25;;;;;;;;;5.00;4.00;;;;;-147.17;100.00;-15917.19;5109981;27;51351;-49
2023/03/12 07:20:52;;;;;;;;;6.00;5.00;;;;;-147.17;100.00;-15917.19;5113766;27;51145;-50
2023/03/12 07:23:17;;;;;;;;;4.00;4.00;;;;;-147.17;100.00;-15917.19;5112078;27;51960;-46
2023/03/12 07:25:43;;;;;;;;;7.00;4.33;;;;;-147.17;100.00;-15917.19;5111539;27;51371;-49
2023/03/12 07:28:10;;;;;;;;;4.00;3.00;;;;;-147.17;100.00;-15917.19;5107890;27;51195;-51
2023/03/12 07:30:36;;;;;;;;;6.67;4.00;;;;;-147.17;100.00;-15917.19;5113426;27;51391;-49
2023/03/12 07:33:10;;;;;;;;;5.00;3.50;;;;;-147.17;100.00;-15917.19;5101204;27;51421;-50
2023/03/12 07:35:35;;;;;;;;;9.00;5.00;;;;;-147.17;100.00;-15917.19;5110863;27;51199;-49
2023/03/12 07:38:02;;;;;;;;;5.67;4.33;;;;;-147.17;100.00;-15917.19;5108274;27;51399;-51
2023/03/12 07:40:28;;;;;;;;;7.00;5.50;;;;;-147.17;100.00;-15917.19;5108565;27;51331;-49
2023/03/12 07:42:53;;;;;;;;;6.00;4.00;;;;;-147.17;100.00;-15917.19;5104492;27;52990;-48
2023/03/12 07:45:19;;;;;;;;;11.00;7.33;;;;;-147.17;100.00;-15917.19;5101304;27;51099;-49
2023/03/12 07:47:45;;;;;;;;;5.33;5.00;;;;;-147.17;100.00;-15917.19;5089457;27;51095;-49
2023/03/12 07:50:11;;;;;;;;;11.00;7.33;;;;;-147.17;100.00;-15917.19;5111690;27;51184;-51
2023/03/12 07:52:36;;;;;;;;;10.00;8.67;;;;;-147.17;100.00;-15917.19;5110040;27;51890;-50
2023/03/12 07:55:02;;;;;;;;;5.67;4.00;;;;;-147.17;100.00;-15917.19;5111245;27;51369;-51
2023/03/12 07:57:28;;;;;;;;;6.67;4.00;;;;;-147.17;100.00;-15917.19;5110330;27;51038;-50
2023/03/12 07:59:53;;;;;;;;;7.67;5.67;;;;;-147.17;100.00;-15917.19;5111804;27;51210;-49
2023/03/12 08:02:19;;;;;;;;;11.00;6.00;;;;;-147.17;100.00;-15917.19;5107580;27;51417;-49
2023/03/12 08:04:45;;;;;;;;;7.00;6.00;;;;;-147.17;100.00;-15917.19;5110453;27;51124;-50
2023/03/12 08:07:10;;;;;;;;;5.67;4.33;;;;;-147.17;100.00;-15917.19;5109320;27;51131;-50
2023/03/12 08:09:37;;;;;;;;;12.00;8.67;;;;;-147.17;100.00;-15917.19;5102516;27;51106;-49
2023/03/12 08:12:03;;;;;;;;;4.00;3.67;;;;;-147.17;100.00;-15917.19;5092462;27;51740;-49
2023/03/12 08:14:30;;;;;;;;;6.33;4.67;;;;;-147.17;100.00;-15917.19;5091866;27;51168;-48
2023/03/12 08:16:56;;;;;;;;;6.67;3.67;;;;;-147.17;100.00;-15917.19;5101241;27;51619;-47
2023/03/12 08:19:21;;;;;;;;;6.75;5.00;;;;;-147.17;100.00;-15917.19;5109458;27;51320;-51
2023/03/12 08:21:47;;;;;;;;;5.33;4.67;;;;;-147.17;100.00;-15917.19;5089804;27;52088;-50
2023/03/12 08:24:13;;;;;;;;;5.00;4.00;;;;;-147.17;100.00;-15917.19;5107249;27;51213;-50
2023/03/12 08:26:38;;;;;;;;;6.00;4.00;;;;;-147.17;100.00;-15917.19;5106404;27;51120;-51
2023/03/12 08:29:04;;;;;;;;;7.33;3.67;;;;;-147.17;100.00;-15917.19;5109338;27;53601;-50
2023/03/12 08:31:29;;;;;;;;;6.67;5.67;;;;;-147.17;100.00;-15917.19;5092451;27;51881;-49
2023/03/12 08:33:54;;;;;;;;;10.67;7.67;;;;;-147.17;100.00;-15917.19;5110471;27;51354;-47
2023/03/12 08:36:20;;;;;;;;;9.00;6.33;;;;;-147.17;100.00;-15917.19;5112217;27;51233;-49
2023/03/12 08:38:45;;;;;;;;;5.67;4.67;;;;;-147.17;100.00;-15917.19;5108990;27;51348;-49
2023/03/12 08:41:11;;;;;;;;;7.00;4.67;;;;;-147.17;100.00;-15917.19;5102901;27;51819;-50
2023/03/12 08:43:36;;;;;;;;;7.33;3.33;;;;;-147.17;100.00;-15917.19;5105173;27;51400;-49
2023/03/12 08:46:02;;;;;;;;;11.67;7.33;;;;;-147.17;100.00;-15917.19;5102311;27;51162;-49
2023/03/12 08:48:30;;;;;;;;;6.00;4.00;;;;;-147.17;100.00;-15917.19;5089494;27;51096;-48
2023/03/12 08:51:02;;;;;;;;;6.00;4.67;;;;;-147.17;100.00;-15917.19;5107643;27;51521;-47
2023/03/12 08:53:29;;;;;;;;;9.00;6.33;;;;;-147.17;100.00;-15917.19;5107052;27;51176;-50
2023/03/12 08:55:55;;;;;;;;;5.00;4.00;;;;;-147.17;100.00;-15917.19;5111401;27;51097;-50
2023/03/12 08:58:22;;;;;;;;;7.00;4.00;;;;;-147.17;100.00;-15917.19;5115144;27;51000;-51
2023/03/12 09:00:47;;;;;;;;;9.00;5.67;;;;;-147.17;100.00;-15917.19;5091164;27;52047;-50
2023/03/12 09:03:13;;;;;;;;;6.67;6.00;;;;;-147.17;100.00;-15917.19;5105249;27;51284;-51
2023/03/12 09:05:40;;;;;;;;;9.33;5.67;;;;;-147.17;100.00;-15917.19;5114803;27;51168;-49
2023/03/12 09:08:05;;;;;;;;;6.67;4.33;;;;;-147.17;100.00;-15917.19;5094296;27;51254;-51
2023/03/12 09:10:31;;;;;;;;;4.00;4.00;;;;;-147.17;100.00;-15917.19;5112863;27;51879;-49
2023/03/12 09:12:57;;;;;;;;;4.00;3.00;;;;;-147.17;100.00;-15917.19;5098201;27;51142;-49
2023/03/12 09:15:22;;;;;;;;;4.00;2.67;;;;;-147.17;100.00;-15917.19;5120667;27;51022;-50
2023/03/12 09:17:47;;;;;;;;;4.00;3.00;;;;;-147.17;100.00;-15917.19;5110405;27;51247;-50
2023/03/12 09:20:13;;;;;;;;;4.00;4.00;;;;;-147.17;100.00;-15917.19;5107819;27;52665;-48
2023/03/12 09:22:39;;;;;;;;;6.00;4.33;;;;;-147.17;100.00;-15917.19;5109579;27;51352;-50
2023/03/12 09:25:07;;;;;;;;;3.67;2.67;;;;;-147.17;100.00;-15917.19;5107038;27;51244;-49
2023/03/12 09:27:38;;;;;;;;;5.00;4.00;;;;;-147.17;100.00;-15917.19;5109357;27;51321;-50
2023/03/12 09:30:06;;;;;;;;;3.00;2.00;;;;;-147.17;100.00;-15917.19;5114287;27;52107;-49
2023/03/12 09:32:31;;;;;;;;;8.33;5.33;;;;;-147.17;100.00;-15917.19;5095115;27;51170;-48
2023/03/12 09:34:56;;;;;;;;;5.67;5.00;;;;;-147.17;100.00;-15917.19;5113508;27;51681;-49
2023/03/12 09:37:22;;;;;;;;;3.00;3.00;;;;;-147.17;100.00;-15917.19;5109021;27;51119;-48
2023/03/12 09:39:48;;;;;;;;;4.33;3.67;;;;;-147.17;100.00;-15917.19;5094997;27;51760;-49
2023/03/12 09:42:24;;;;;;;;;3.00;3.00;;;;;-147.17;100.00;-15917.19;5113382;27;51247;-49
2023/03/12 09:44:52;;;;;;;;;4.33;2.67;;;;;-147.17;100.00;-15917.19;5093183;27;51445;-49
2023/03/12 09:47:28;;;;;;;;;3.67;3.00;;;;;-147.17;100.00;-15917.19;5113008;27;50964;-48
2023/03/12 09:50:02;;;;;;;;;6.33;4.67;;;;;-147.17;100.00;-15917.19;5110220;27;52271;-48
2023/03/12 09:52:43;;;;;;;;;5.00;4.00;;;;;-147.17;100.00;-15917.19;5110894;27;51214;-49
2023/03/12 09:55:16;;;;;;;;;4.33;3.00;;;;;-147.17;100.00;-15917.19;5088615;27;51081;-49
2023/03/12 09:57:43;;;;;;;;;5.33;4.00;;;;;-147.17;100.00;-15917.19;5108064;27;50994;-48
2023/03/12 10:00:16;;;;;;;;;3.00;3.00;;;;;-147.17;100.00;-15917.19;5110983;27;52559;-49
2023/03/12 10:02:50;;;;;;;;;4.33;3.33;;;;;-147.17;100.00;-15917.19;5089436;27;51109;-50
2023/03/12 10:05:25;;;;;;;;;5.67;4.00;;;;;-147.17;100.00;-15917.19;5090310;27;51070;-52
2023/03/12 10:08:02;;;;;;;;;6.00;4.33;;;;;-147.17;100.00;-15917.19;5104687;27;51268;-49
2023/03/12 10:10:33;;;;;;;;;4.67;4.00;;;;;-147.17;100.00;-15917.19;5112146;27;51861;-50
2023/03/12 10:13:05;;;;;;;;;6.00;3.67;;;;;-147.17;100.00;-15917.19;5113157;27;51139;-48
2023/03/12 10:15:40;;;;;;;;;4.33;3.00;;;;;-147.17;100.00;-15917.19;5113594;27;51215;-50
2023/03/12 10:18:47;;;;;;;;;7.33;5.33;;;;;-147.17;100.00;-15917.19;5111250;27;51154;-49
2023/03/12 10:21:34;;;;;;;;;6.67;5.00;;;;;-147.17;100.00;-15917.19;5086866;27;52060;-47
2023/03/12 10:24:19;;;;;;;;;4.33;3.33;;;;;-147.17;100.00;-15917.19;5110459;27;51250;-47
2023/03/12 10:26:53;;;;;;;;;2.33;2.00;;;;;-147.17;100.00;-15917.19;5105463;27;51898;-49
2023/03/12 10:29:28;;;;;;;;;6.00;4.00;;;;;-147.17;100.00;-15917.19;5102691;27;51225;-49
2023/03/12 10:32:03;;;;;;;;;4.00;3.67;;;;;-147.17;100.00;-15917.19;5113869;27;51194;-50
2023/03/12 10:34:42;;;;;;;;;5.33;3.00;;;;;-147.17;100.00;-15917.19;5113069;27;51189;-49
2023/03/12 10:37:30;;;;;;;;;4.33;3.67;;;;;-147.17;100.00;-15917.19;5093270;27;51087;-49
2023/03/12 10:39:55;;;;;;;;;4.00;4.00;;;;;-147.17;100.00;-15917.19;5113649;27;51291;-48
2023/03/12 10:42:26;;;;;;;;;3.67;3.67;;;;;-147.17;100.00;-15917.19;5107937;27;51169;-50
2023/03/12 10:44:59;;;;;;;;;3.00;3.00;;;;;-147.17;100.00;-15917.19;5111274;27;51288;-50
2023/03/12 10:47:36;;;;;;;;;4.33;3.67;;;;;-147.17;100.00;-15917.19;5112937;27;51219;-49
2023/03/12 10:50:23;;;;;;;;;7.00;5.00;;;;;-147.17;100.00;-15917.19;5111573;27;51250;-51
2023/03/12 10:52:52;;;;;;;;;7.33;4.00;;;;;-147.17;100.00;-15917.19;5088270;27;51018;-47
2023/03/12 10:55:28;;;;;;;;;6.00;5.00;;;;;-147.17;100.00;-15917.19;5109281;27;51217;-50
2023/03/12 10:57:54;;;;;;;;;5.00;4.67;;;;;-147.17;100.00;-15917.19;5108197;27;51168;-49
2023/03/12 11:00:24;;;;;;;;;5.33;4.00;;;;;-147.17;100.00;-15917.19;5113210;27;51084;-49